createdAt,value
2022-09-11T07:19:30.752Z,1011.68
2022-09-11T07:20:30.697Z,1011.72
2022-09-11T07:21:30.678Z,1011.71
2022-09-11T07:22:30.776Z,1011.71
2022-09-11T07:23:30.620Z,1011.74
2022-09-11T07:24:30.579Z,1011.74
2022-09-11T07:25:30.588Z,1011.77
2022-09-11T07:26:30.557Z,1011.86
2022-09-11T07:27:30.607Z,1011.81
2022-09-11T07:28:30.537Z,1011.85
2022-09-11T07:29:30.523Z,1011.82
2022-09-11T07:30:30.550Z,1011.83
2022-09-11T07:31:30.523Z,1011.83
2022-09-11T07:32:30.572Z,1011.86
2022-09-11T07:33:30.488Z,1011.80
2022-09-11T07:34:30.490Z,1011.80
2022-09-11T07:35:30.467Z,1011.85
2022-09-11T07:36:30.441Z,1011.82
2022-09-11T07:37:30.435Z,1011.91
2022-09-11T07:38:30.428Z,1011.90
2022-09-11T07:39:30.473Z,1011.93
2022-09-11T07:40:30.442Z,1011.85
2022-09-11T07:41:30.392Z,1011.83
2022-09-11T07:42:30.402Z,1011.91
2022-09-11T07:43:30.379Z,1011.93
2022-09-11T07:44:30.363Z,1011.94
2022-09-11T07:45:30.462Z,1011.95
2022-09-11T07:46:30.336Z,1011.96
2022-09-11T07:47:30.403Z,1011.87
2022-09-11T07:48:30.386Z,1011.92
2022-09-11T07:49:30.305Z,1011.88
2022-09-11T07:50:30.353Z,1011.87
2022-09-11T07:51:30.309Z,1011.92
2022-09-11T07:52:30.285Z,1011.96
2022-09-11T07:53:30.294Z,1012.00
2022-09-11T07:54:30.276Z,1012.02
2022-09-11T07:55:30.248Z,1012.04
2022-09-11T07:56:30.251Z,1011.98
2022-09-11T07:57:30.235Z,1011.95
2022-09-11T07:58:30.220Z,1012.00
2022-09-11T07:59:30.197Z,1011.98
2022-09-11T08:00:33.002Z,1012.04
2022-09-11T08:01:31.247Z,1011.98
2022-09-11T08:02:30.288Z,1012.00
2022-09-11T08:03:30.155Z,1011.96
2022-09-11T08:04:30.165Z,1012.06
2022-09-11T08:05:30.143Z,1012.06
2022-09-11T08:06:30.185Z,1012.08
2022-09-11T08:07:30.126Z,1012.10
2022-09-11T08:08:30.121Z,1012.09
2022-09-11T08:09:30.133Z,1012.07
2022-09-11T08:10:30.081Z,1012.06
2022-09-11T08:11:30.079Z,1012.07
2022-09-11T08:12:30.067Z,1012.13
2022-09-11T08:13:30.098Z,1011.99
2022-09-11T08:14:30.089Z,1012.16
2022-09-11T08:15:30.058Z,1012.06
2022-09-11T08:16:30.155Z,1012.12
2022-09-11T08:17:30.019Z,1012.16
2022-09-11T08:18:29.999Z,1012.07
2022-09-11T08:19:29.993Z,1012.18
2022-09-11T08:20:30.007Z,1012.09
2022-09-11T08:21:30.030Z,1012.12
2022-09-11T08:22:29.964Z,1012.21
2022-09-11T08:23:29.971Z,1012.20
2022-09-11T08:24:29.951Z,1012.19
2022-09-11T08:25:29.954Z,1012.17
2022-09-11T08:26:29.961Z,1012.26
2022-09-11T08:27:29.955Z,1012.32
2022-09-11T08:28:29.895Z,1012.34
2022-09-11T08:29:29.880Z,1012.25
2022-09-11T08:30:30.197Z,1012.36
2022-09-11T08:31:29.912Z,1012.32
2022-09-11T08:32:29.860Z,1012.30
2022-09-11T08:33:29.848Z,1012.37
2022-09-11T08:34:29.823Z,1012.40
2022-09-11T08:35:29.844Z,1012.35
2022-09-11T08:36:29.810Z,1012.38
2022-09-11T08:37:29.793Z,1012.40
2022-09-11T08:38:29.822Z,1012.38
2022-09-11T08:39:29.789Z,1012.45
2022-09-11T08:40:29.774Z,1012.38
2022-09-11T08:41:29.768Z,1012.38
2022-09-11T08:42:29.750Z,1012.41
2022-09-11T08:43:29.752Z,1012.40
2022-09-11T08:44:29.725Z,1012.37
2022-09-11T08:45:29.732Z,1012.33
2022-09-11T08:46:29.701Z,1012.41
2022-09-11T08:47:29.688Z,1012.38
2022-09-11T08:48:29.716Z,1012.35
2022-09-11T08:49:29.683Z,1012.40
2022-09-11T08:50:29.668Z,1012.34
2022-09-11T08:51:29.646Z,1012.38
2022-09-11T08:52:29.646Z,1012.32
2022-09-11T08:53:29.624Z,1012.42
2022-09-11T08:54:29.632Z,1012.47
2022-09-11T08:55:29.632Z,1012.41
2022-09-11T08:56:29.610Z,1012.39
2022-09-11T08:57:29.619Z,1012.42
2022-09-11T08:58:29.583Z,1012.46
2022-09-11T08:59:29.584Z,1012.42
2022-09-11T09:00:29.558Z,1012.47
2022-09-11T09:01:29.616Z,1012.46
2022-09-11T09:02:29.610Z,1012.51
2022-09-11T09:03:29.533Z,1012.51
2022-09-11T09:04:29.526Z,1012.45
2022-09-11T09:05:29.545Z,1012.51
2022-09-11T09:06:29.570Z,1012.51
2022-09-11T09:07:29.474Z,1012.43
2022-09-11T09:08:29.481Z,1012.46
2022-09-11T09:09:34.331Z,1012.42
2022-09-11T09:10:30.451Z,1012.46
2022-09-11T09:11:29.467Z,1012.54
2022-09-11T09:12:29.441Z,1012.42
2022-09-11T09:13:29.416Z,1012.44
2022-09-11T09:14:29.408Z,1012.44
2022-09-11T09:15:29.642Z,1012.47
2022-09-11T09:16:29.404Z,1012.49
2022-09-11T09:17:29.405Z,1012.52
2022-09-11T09:18:29.362Z,1012.52
2022-09-11T09:19:29.384Z,1012.53
2022-09-11T09:20:29.344Z,1012.58
2022-09-11T09:21:29.366Z,1012.50
2022-09-11T09:22:30.331Z,1012.52
2022-09-11T09:23:29.347Z,1012.51
2022-09-11T09:24:29.313Z,1012.57
2022-09-11T09:25:31.370Z,1012.57
2022-09-11T09:26:38.567Z,1012.61
2022-09-11T09:27:29.447Z,1012.56
2022-09-11T09:28:29.446Z,1012.61
2022-09-11T09:29:29.358Z,1012.62
2022-09-11T09:30:29.358Z,1012.60
2022-09-11T09:31:29.324Z,1012.69
2022-09-11T09:32:29.232Z,1012.63
2022-09-11T09:33:29.202Z,1012.62
2022-09-11T09:34:29.234Z,1012.63
2022-09-11T09:35:29.205Z,1012.64
2022-09-11T09:36:29.170Z,1012.62
2022-09-11T09:37:29.279Z,1012.61
2022-09-11T09:38:29.150Z,1012.57
2022-09-11T09:39:29.141Z,1012.54
2022-09-11T09:40:29.172Z,1012.58
2022-09-11T09:41:29.147Z,1012.62
2022-09-11T09:42:29.125Z,1012.60
2022-09-11T09:43:29.124Z,1012.56
2022-09-11T09:44:29.088Z,1012.51
2022-09-11T09:45:29.082Z,1012.56
2022-09-11T09:46:37.885Z,1012.50
2022-09-11T09:47:29.199Z,1012.55
2022-09-11T09:48:29.194Z,1012.49
2022-09-11T09:49:29.098Z,1012.55
2022-09-11T09:50:29.150Z,1012.63
2022-09-11T09:51:29.051Z,1012.55
2022-09-11T09:52:29.133Z,1012.62
2022-09-11T09:53:29.185Z,1012.58
2022-09-11T09:54:29.007Z,1012.55
2022-09-11T09:55:29.022Z,1012.64
2022-09-11T09:56:28.972Z,1012.55
2022-09-11T09:57:37.927Z,1012.63
2022-09-11T09:58:29.108Z,1012.60
2022-09-11T09:59:29.004Z,1012.65
2022-09-11T10:00:29.159Z,1012.58
2022-09-11T10:01:29.055Z,1012.62
2022-09-11T10:02:28.926Z,1012.60
2022-09-11T10:03:28.903Z,1012.57
2022-09-11T10:04:37.657Z,1012.67
2022-09-11T10:05:28.966Z,1012.64
2022-09-11T10:06:28.925Z,1012.71
2022-09-11T10:07:28.958Z,1012.62
2022-09-11T10:08:28.878Z,1012.68
2022-09-11T10:09:28.838Z,1012.62
2022-09-11T10:10:28.861Z,1012.61
2022-09-11T10:11:28.813Z,1012.62
2022-09-11T10:12:39.021Z,1012.64
2022-09-11T10:13:28.961Z,1012.64
2022-09-11T10:14:50.323Z,1012.68
2022-09-11T10:15:29.839Z,1012.61
2022-09-11T10:16:28.775Z,1012.73
2022-09-11T10:17:28.757Z,1012.72
2022-09-11T10:18:28.759Z,1012.72
2022-09-11T10:19:28.727Z,1012.76
2022-09-11T10:20:28.816Z,1012.75
2022-09-11T10:21:28.774Z,1012.79
2022-09-11T10:22:28.716Z,1012.74
2022-09-11T10:24:40.577Z,1012.75
2022-09-11T10:25:48.108Z,1012.68
2022-09-11T10:26:40.449Z,1012.73
2022-09-11T10:27:40.378Z,1012.74
2022-09-11T10:28:40.561Z,1012.78
2022-09-11T10:29:40.308Z,1012.73
2022-09-11T10:30:40.265Z,1012.75
2022-09-11T10:31:40.266Z,1012.66
2022-09-11T10:32:40.313Z,1012.67
2022-09-11T10:33:40.229Z,1012.75
2022-09-11T10:34:40.437Z,1012.70
2022-09-11T10:35:40.217Z,1012.76
2022-09-11T10:36:40.210Z,1012.65
2022-09-11T10:37:40.198Z,1012.70
2022-09-11T10:38:41.615Z,1012.74
2022-09-11T10:39:40.226Z,1012.68
2022-09-11T10:40:40.489Z,1012.77
2022-09-11T10:41:40.150Z,1012.67
2022-09-11T10:42:40.233Z,1012.74
2022-09-11T10:43:40.250Z,1012.75
2022-09-11T10:44:40.141Z,1012.81
2022-09-11T10:45:40.302Z,1012.80
2022-09-11T10:46:40.382Z,1012.77
2022-09-11T10:47:40.132Z,1012.77
2022-09-11T10:48:40.159Z,1012.74
2022-09-11T10:49:40.080Z,1012.89
2022-09-11T10:50:40.118Z,1012.78
2022-09-11T10:51:43.086Z,1012.83
2022-09-11T10:52:41.177Z,1012.86
2022-09-11T10:53:40.066Z,1012.80
2022-09-11T10:54:50.060Z,1012.86
2022-09-11T10:55:40.158Z,1012.79
2022-09-11T10:56:40.046Z,1012.72
2022-09-11T10:57:40.098Z,1012.76
2022-09-11T10:58:54.786Z,1012.74
2022-09-11T10:59:40.217Z,1012.72
2022-09-11T11:00:40.035Z,1012.80
2022-09-11T11:01:40.297Z,1012.78
2022-09-11T11:02:40.013Z,1012.79
2022-09-11T11:04:50.545Z,1012.82
2022-09-11T11:05:50.467Z,1012.73
2022-09-11T11:06:50.337Z,1012.71
2022-09-11T11:07:50.525Z,1012.72
2022-09-11T11:08:59.133Z,1012.65
2022-09-11T11:09:50.476Z,1012.78
2022-09-11T11:10:50.308Z,1012.77
2022-09-11T11:11:50.220Z,1012.70
2022-09-11T11:12:58.931Z,1012.72
2022-09-11T11:13:58.496Z,1012.72
2022-09-11T11:16:06.705Z,1012.65
2022-09-11T11:17:06.659Z,1012.67
2022-09-11T11:18:06.508Z,1012.66
2022-09-11T11:19:06.529Z,1012.74
2022-09-11T11:20:06.468Z,1012.69
2022-09-11T11:21:06.438Z,1012.76
2022-09-11T11:22:06.387Z,1012.72
2022-09-11T11:23:06.414Z,1012.72
2022-09-11T11:24:06.365Z,1012.73
2022-09-11T11:25:06.364Z,1012.70
2022-09-11T11:26:06.348Z,1012.70
2022-09-11T11:27:06.495Z,1012.62
2022-09-11T11:28:06.342Z,1012.65
2022-09-11T11:29:06.321Z,1012.68
2022-09-11T11:30:06.334Z,1012.70
2022-09-11T11:31:06.404Z,1012.72
2022-09-11T11:32:06.320Z,1012.72
2022-09-11T11:33:06.307Z,1012.68
2022-09-11T11:34:06.295Z,1012.72
2022-09-11T11:35:06.325Z,1012.77
2022-09-11T11:36:06.270Z,1012.74
2022-09-11T11:37:06.249Z,1012.74
2022-09-11T11:38:06.250Z,1012.72
2022-09-11T11:39:06.247Z,1012.71
2022-09-11T11:40:06.312Z,1012.72
2022-09-11T11:41:06.246Z,1012.72
2022-09-11T11:43:51.695Z,1012.65
2022-09-11T11:44:51.565Z,1012.63
2022-09-11T11:45:51.712Z,1012.62
2022-09-11T11:46:51.545Z,1012.70
2022-09-11T11:47:51.488Z,1012.65
2022-09-11T11:48:51.437Z,1012.70
2022-09-11T11:49:51.453Z,1012.72
2022-09-11T11:50:51.610Z,1012.68
2022-09-11T11:51:51.492Z,1012.73
2022-09-11T11:52:51.496Z,1012.75
2022-09-11T11:53:51.475Z,1012.74
2022-09-11T11:54:51.384Z,1012.72
2022-09-11T11:55:51.400Z,1012.64
2022-09-11T11:57:01.734Z,1012.72
2022-09-11T11:58:00.654Z,1012.72
2022-09-11T11:58:51.572Z,1012.72
2022-09-11T11:59:51.594Z,1012.62
2022-09-11T12:00:55.237Z,1012.69
2022-09-11T12:01:51.492Z,1012.68
2022-09-11T12:02:51.293Z,1012.66
2022-09-11T12:03:51.405Z,1012.71
2022-09-11T12:04:51.298Z,1012.64
2022-09-11T12:05:51.305Z,1012.76
2022-09-11T12:06:51.286Z,1012.70
2022-09-11T12:07:51.634Z,1012.68
2022-09-11T12:08:51.320Z,1012.71
2022-09-11T12:09:51.284Z,1012.66
2022-09-11T12:10:51.202Z,1012.67
2022-09-11T12:11:51.342Z,1012.68
2022-09-11T12:12:51.343Z,1012.64
2022-09-11T12:15:09.683Z,1012.69
2022-09-11T12:17:21.977Z,1012.66
2022-09-11T12:19:33.521Z,1012.63
2022-09-11T12:21:44.806Z,1012.65
2022-09-11T12:22:44.744Z,1012.55
2022-09-11T12:23:55.190Z,1012.62
2022-09-11T12:24:44.675Z,1012.55
2022-09-11T12:25:44.972Z,1012.64
2022-09-11T12:28:01.504Z,1012.72
2022-09-11T12:29:10.689Z,1012.70
2022-09-11T12:32:09.105Z,1012.63
2022-09-11T12:33:08.487Z,1012.63
2022-09-11T12:35:26.111Z,1012.64
2022-09-11T12:36:25.875Z,1012.60
2022-09-11T12:37:25.896Z,1012.67
2022-09-11T12:39:41.086Z,1012.76
2022-09-11T12:40:40.834Z,1012.70
2022-09-11T12:41:40.838Z,1012.64
2022-09-11T12:42:40.838Z,1012.58
2022-09-11T12:43:40.789Z,1012.66
2022-09-11T12:44:40.682Z,1012.65
2022-09-11T12:45:40.696Z,1012.65
2022-09-11T12:46:40.668Z,1012.64
2022-09-11T12:47:40.719Z,1012.64
2022-09-11T12:48:40.686Z,1012.59
2022-09-11T12:49:40.655Z,1012.61
2022-09-11T12:50:40.680Z,1012.57
2022-09-11T12:51:40.760Z,1012.58
2022-09-11T12:52:40.930Z,1012.73
2022-09-11T12:53:44.995Z,1012.67
2022-09-11T12:54:41.623Z,1012.58
2022-09-11T12:55:40.585Z,1012.61
2022-09-11T12:56:40.553Z,1012.61
2022-09-11T12:57:40.571Z,1012.68
2022-09-11T12:58:40.668Z,1012.61
2022-09-11T12:59:40.689Z,1012.63
2022-09-11T13:00:40.508Z,1012.64
2022-09-11T13:01:40.583Z,1012.65
2022-09-11T13:02:40.497Z,1012.65
2022-09-11T13:03:40.480Z,1012.64
2022-09-11T13:04:40.508Z,1012.62
2022-09-11T13:05:40.507Z,1012.68
2022-09-11T13:06:40.591Z,1012.64
2022-09-11T13:07:40.485Z,1012.66
2022-09-11T13:08:40.525Z,1012.67
2022-09-11T13:09:40.496Z,1012.67
2022-09-11T13:10:40.447Z,1012.69
2022-09-11T13:11:40.533Z,1012.68
2022-09-11T13:12:40.437Z,1012.69
2022-09-11T13:13:40.474Z,1012.63
2022-09-11T13:14:40.457Z,1012.61
2022-09-11T13:15:40.442Z,1012.72
2022-09-11T13:16:40.588Z,1012.74
2022-09-11T13:17:40.340Z,1012.80
2022-09-11T13:20:44.096Z,1012.81
2022-09-11T13:22:58.645Z,1012.95
2022-09-11T13:25:24.121Z,1012.98
2022-09-11T13:26:24.218Z,1012.92
2022-09-11T13:28:56.294Z,1012.83
2022-09-11T13:29:56.282Z,1012.95
2022-09-11T13:30:56.238Z,1012.87
2022-09-11T13:31:56.483Z,1012.96
2022-09-11T13:33:04.519Z,1012.90
2022-09-11T13:33:56.443Z,1012.97
2022-09-11T13:34:56.260Z,1012.91
2022-09-11T13:35:56.138Z,1012.94
2022-09-11T13:36:56.733Z,1012.93
2022-09-11T13:37:56.079Z,1012.87
2022-09-11T13:38:56.281Z,1012.90
2022-09-11T13:39:59.999Z,1012.93
2022-09-11T13:40:56.030Z,1012.87
2022-09-11T13:41:56.766Z,1012.82
2022-09-11T13:42:56.285Z,1012.89
2022-09-11T13:43:58.301Z,1012.81
2022-09-11T13:44:56.348Z,1012.80
2022-09-11T13:45:56.049Z,1012.76
2022-09-11T13:46:55.979Z,1012.72
2022-09-11T13:47:55.969Z,1012.76
2022-09-11T13:48:55.972Z,1012.82
2022-09-11T13:49:55.958Z,1012.84
2022-09-11T13:50:55.920Z,1012.87
2022-09-11T13:51:55.934Z,1012.90
2022-09-11T13:52:55.942Z,1012.82
2022-09-11T13:53:55.891Z,1012.87
2022-09-11T13:54:55.900Z,1012.91
2022-09-11T13:55:55.862Z,1012.87
2022-09-11T13:56:55.864Z,1012.96
2022-09-11T13:57:55.862Z,1012.98
2022-09-11T13:58:55.848Z,1012.97
2022-09-11T13:59:56.432Z,1013.04
2022-09-11T14:00:56.428Z,1012.93
2022-09-11T14:01:56.162Z,1013.09
2022-09-11T14:02:55.854Z,1013.05
2022-09-11T14:03:58.615Z,1013.08
2022-09-11T14:04:57.784Z,1013.10
2022-09-11T14:05:55.773Z,1013.06
2022-09-11T14:06:55.742Z,1013.04
2022-09-11T14:07:55.760Z,1013.06
2022-09-11T14:08:55.727Z,1013.07
2022-09-11T14:09:56.400Z,1013.06
2022-09-11T14:10:55.740Z,1013.03
2022-09-11T14:11:55.684Z,1013.03
2022-09-11T14:12:55.675Z,1013.06
2022-09-11T14:13:55.717Z,1013.02
2022-09-11T14:14:55.648Z,1013.06
2022-09-11T14:15:55.697Z,1012.98
2022-09-11T14:16:55.629Z,1012.98
2022-09-11T14:17:55.612Z,1012.88
2022-09-11T14:18:55.639Z,1012.83
2022-09-11T14:20:00.308Z,1012.86
2022-09-11T14:20:56.588Z,1012.91
2022-09-11T14:21:55.580Z,1012.91
2022-09-11T14:22:55.568Z,1012.93
2022-09-11T14:23:55.560Z,1012.86
2022-09-11T14:24:55.545Z,1012.87
2022-09-11T14:25:55.552Z,1012.95
2022-09-11T14:26:55.620Z,1012.93
2022-09-11T14:27:55.517Z,1012.91
2022-09-11T14:29:04.125Z,1012.88
2022-09-11T14:30:04.578Z,1012.91
2022-09-11T14:30:55.612Z,1012.85
2022-09-11T14:31:55.523Z,1012.84
2022-09-11T14:32:55.551Z,1012.87
2022-09-11T14:33:55.456Z,1012.87
2022-09-11T14:34:55.437Z,1012.84
2022-09-11T14:35:55.434Z,1012.81
2022-09-11T14:36:55.520Z,1012.81
2022-09-11T14:37:55.408Z,1012.89
2022-09-11T14:38:55.389Z,1012.85
2022-09-11T14:39:55.448Z,1012.84
2022-09-11T14:40:55.405Z,1012.81
2022-09-11T14:41:55.363Z,1012.82
2022-09-11T14:42:55.361Z,1012.88
2022-09-11T14:43:55.339Z,1012.85
2022-09-11T14:44:55.349Z,1012.88
2022-09-11T14:45:55.347Z,1012.84
2022-09-11T14:46:55.347Z,1012.88
2022-09-11T14:47:55.297Z,1012.91
2022-09-11T14:48:55.287Z,1012.92
2022-09-11T14:49:55.272Z,1012.88
2022-09-11T14:50:55.282Z,1012.88
2022-09-11T14:51:55.268Z,1012.80
2022-09-11T14:52:55.248Z,1012.84
2022-09-11T14:53:55.236Z,1012.89
2022-09-11T14:54:55.217Z,1012.89
2022-09-11T14:55:55.227Z,1012.87
2022-09-11T14:56:55.194Z,1012.83
2022-09-11T14:57:55.203Z,1012.86
2022-09-11T14:58:55.201Z,1012.86
2022-09-11T14:59:55.160Z,1012.89
2022-09-11T15:00:55.158Z,1012.85
2022-09-11T15:01:55.166Z,1012.97
2022-09-11T15:02:55.183Z,1012.87
2022-09-11T15:03:55.124Z,1012.86
2022-09-11T15:04:55.116Z,1012.91
2022-09-11T15:05:55.095Z,1012.89
2022-09-11T15:06:55.103Z,1012.88
2022-09-11T15:07:55.077Z,1012.90
2022-09-11T15:08:55.067Z,1012.83
2022-09-11T15:09:55.071Z,1012.91
2022-09-11T15:10:55.048Z,1012.90
2022-09-11T15:11:55.050Z,1012.79
2022-09-11T15:12:55.028Z,1012.86
2022-09-11T15:14:14.426Z,1012.86
2022-09-11T15:14:58.245Z,1012.83
2022-09-11T15:15:55.031Z,1012.87
2022-09-11T15:16:54.993Z,1012.80
2022-09-11T15:17:54.988Z,1012.84
2022-09-11T15:18:54.952Z,1012.87
2022-09-11T15:19:54.949Z,1012.86
2022-09-11T15:20:54.942Z,1012.90
2022-09-11T15:21:54.935Z,1012.84
2022-09-11T15:22:54.927Z,1012.87
2022-09-11T15:23:54.914Z,1012.86
2022-09-11T15:24:54.891Z,1012.90
2022-09-11T15:25:54.878Z,1012.95
2022-09-11T15:26:54.877Z,1012.87
2022-09-11T15:27:54.892Z,1012.87
2022-09-11T15:28:54.848Z,1012.92
2022-09-11T15:29:54.839Z,1012.90
2022-09-11T15:30:54.919Z,1012.95
2022-09-11T15:31:54.825Z,1012.92
2022-09-11T15:32:54.829Z,1012.94
2022-09-11T15:33:54.814Z,1012.84
2022-09-11T15:34:54.822Z,1012.83
2022-09-11T15:35:54.781Z,1012.88
2022-09-11T15:36:54.760Z,1012.91
2022-09-11T15:37:54.773Z,1012.84
2022-09-11T15:38:54.755Z,1012.90
2022-09-11T15:39:54.786Z,1012.85
2022-09-11T15:40:54.718Z,1012.87
2022-09-11T15:41:54.710Z,1012.84
2022-09-11T15:42:54.702Z,1012.91
2022-09-11T15:43:54.694Z,1012.87
2022-09-11T15:44:54.678Z,1012.89
2022-09-11T15:45:54.811Z,1012.91
2022-09-11T15:46:54.678Z,1012.89
2022-09-11T15:47:54.640Z,1012.85
2022-09-11T15:48:54.652Z,1012.96
2022-09-11T15:49:54.622Z,1012.91
2022-09-11T15:50:54.618Z,1012.91
2022-09-11T15:51:54.614Z,1012.93
2022-09-11T15:52:54.594Z,1012.94
2022-09-11T15:53:54.582Z,1012.94
2022-09-11T15:54:54.585Z,1012.93
2022-09-11T15:55:54.555Z,1012.92
2022-09-11T15:56:54.550Z,1012.89
2022-09-11T15:57:54.550Z,1012.95
2022-09-11T15:58:54.525Z,1012.92
2022-09-11T15:59:54.530Z,1012.88
2022-09-11T16:00:54.521Z,1012.90
2022-09-11T16:01:54.531Z,1012.83
2022-09-11T16:02:54.499Z,1012.92
2022-09-11T16:03:54.498Z,1012.88
2022-09-11T16:04:54.480Z,1012.93
2022-09-11T16:05:54.450Z,1012.83
2022-09-11T16:06:54.440Z,1012.86
2022-09-11T16:07:54.425Z,1012.85
2022-09-11T16:08:54.415Z,1012.88
2022-09-11T16:09:54.416Z,1012.87
2022-09-11T16:10:54.409Z,1012.84
2022-09-11T16:11:54.403Z,1012.81
2022-09-11T16:12:58.143Z,1012.79
2022-09-11T16:13:54.385Z,1012.87
2022-09-11T16:14:54.352Z,1012.85
2022-09-11T16:15:54.365Z,1012.86
2022-09-11T16:16:54.371Z,1012.86
2022-09-11T16:17:54.318Z,1012.84
2022-09-11T16:18:54.338Z,1012.85
2022-09-11T16:19:54.296Z,1012.85
2022-09-11T16:20:54.289Z,1012.85
2022-09-11T16:21:54.306Z,1012.82
2022-09-11T16:22:54.269Z,1012.87
2022-09-11T16:23:56.856Z,1012.83
2022-09-11T16:24:55.251Z,1012.75
2022-09-11T16:25:54.237Z,1012.83
2022-09-11T16:26:54.224Z,1012.79
2022-09-11T16:27:54.237Z,1012.79
2022-09-11T16:28:54.214Z,1012.80
2022-09-11T16:30:39.211Z,1012.84
2022-09-11T16:30:55.285Z,1012.77
2022-09-11T16:31:54.177Z,1012.81
2022-09-11T16:32:54.158Z,1012.81
2022-09-11T16:33:54.159Z,1012.83
2022-09-11T16:34:54.159Z,1012.77
2022-09-11T16:35:54.126Z,1012.82
2022-09-11T16:36:54.124Z,1012.80
2022-09-11T16:37:54.126Z,1012.81
2022-09-11T16:38:54.101Z,1012.81
2022-09-11T16:39:54.178Z,1012.82
2022-09-11T16:40:54.085Z,1012.77
2022-09-11T16:41:54.072Z,1012.81
2022-09-11T16:42:54.063Z,1012.82
2022-09-11T16:43:54.051Z,1012.81
2022-09-11T16:44:54.034Z,1012.84
2022-09-11T16:45:54.048Z,1012.77
2022-09-11T16:46:54.023Z,1012.79
2022-09-11T16:47:54.005Z,1012.78
2022-09-11T16:48:56.171Z,1012.77
2022-09-11T16:50:09.502Z,1012.85
2022-09-11T16:50:54.997Z,1012.79
2022-09-11T16:51:53.963Z,1012.77
2022-09-11T16:52:53.955Z,1012.82
2022-09-11T16:53:53.948Z,1012.79
2022-09-11T16:54:53.925Z,1012.79
2022-09-11T16:55:53.934Z,1012.81
2022-09-11T16:56:53.908Z,1012.75
2022-09-11T16:57:53.948Z,1012.80
2022-09-11T16:58:53.899Z,1012.79
2022-09-11T16:59:53.871Z,1012.82
2022-09-11T17:00:53.940Z,1012.82
2022-09-11T17:01:53.872Z,1012.73
2022-09-11T17:02:53.841Z,1012.81
2022-09-11T17:03:53.833Z,1012.86
2022-09-11T17:04:53.872Z,1012.84
2022-09-11T17:05:53.811Z,1012.92
2022-09-11T17:06:53.823Z,1012.91
2022-09-11T17:07:53.791Z,1012.92
2022-09-11T17:08:53.798Z,1012.87
2022-09-11T17:09:53.777Z,1012.83
2022-09-11T17:10:53.775Z,1012.94
2022-09-11T17:11:53.754Z,1012.92
2022-09-11T17:12:53.735Z,1012.90
2022-09-11T17:13:53.750Z,1012.88
2022-09-11T17:14:53.720Z,1012.89
2022-09-11T17:15:53.746Z,1012.89
2022-09-11T17:16:53.699Z,1012.88
2022-09-11T17:17:53.685Z,1012.87
2022-09-11T17:18:53.668Z,1012.84
2022-09-11T17:19:53.666Z,1012.90
2022-09-11T17:20:53.668Z,1012.82
2022-09-11T17:21:53.634Z,1012.86
2022-09-11T17:22:57.812Z,1012.86
2022-09-11T17:23:53.614Z,1012.77
2022-09-11T17:24:53.607Z,1012.82
2022-09-11T17:25:53.618Z,1012.85
2022-09-11T17:26:53.583Z,1012.81
2022-09-11T17:27:53.574Z,1012.82
2022-09-11T17:28:53.564Z,1012.84
2022-09-11T17:29:53.562Z,1012.86
2022-09-11T17:30:53.541Z,1012.82
2022-09-11T17:32:10.650Z,1012.83
2022-09-11T17:32:54.520Z,1012.91
2022-09-11T17:33:53.510Z,1012.91
2022-09-11T17:34:53.504Z,1012.94
2022-09-11T17:35:53.513Z,1012.90
2022-09-11T17:36:53.491Z,1012.91
2022-09-11T17:37:53.472Z,1012.94
2022-09-11T17:38:53.475Z,1012.96
2022-09-11T17:39:53.499Z,1012.96
2022-09-11T17:40:53.436Z,1012.95
2022-09-11T17:41:53.437Z,1012.98
2022-09-11T17:42:53.427Z,1013.02
2022-09-11T17:43:53.405Z,1013.05
2022-09-11T17:44:53.390Z,1013.02
2022-09-11T17:45:53.374Z,1013.06
2022-09-11T17:46:53.373Z,1013.02
2022-09-11T17:47:53.388Z,1013.00
2022-09-11T17:48:53.355Z,1013.08
2022-09-11T17:49:53.344Z,1013.03
2022-09-11T17:50:53.337Z,1013.04
2022-09-11T17:51:53.324Z,1013.09
2022-09-11T17:52:53.321Z,1013.07
2022-09-11T17:53:53.317Z,1012.99
2022-09-11T17:54:53.310Z,1013.03
2022-09-11T17:55:53.275Z,1013.01
2022-09-11T17:56:53.271Z,1013.00
2022-09-11T17:57:53.258Z,1013.02
2022-09-11T17:58:53.269Z,1013.04
2022-09-11T17:59:53.240Z,1013.01
2022-09-11T18:00:53.267Z,1012.99
2022-09-11T18:01:53.281Z,1012.95
2022-09-11T18:02:53.203Z,1013.03
2022-09-11T18:03:53.190Z,1013.00
2022-09-11T18:04:53.198Z,1013.02
2022-09-11T18:05:53.196Z,1012.98
2022-09-11T18:06:53.165Z,1012.98
2022-09-11T18:07:53.170Z,1013.03
2022-09-11T18:08:53.152Z,1012.96
2022-09-11T18:09:56.413Z,1012.99
2022-09-11T18:10:53.128Z,1013.00
2022-09-11T18:11:53.111Z,1012.98
2022-09-11T18:12:53.101Z,1013.04
2022-09-11T18:13:53.075Z,1013.01
2022-09-11T18:14:53.082Z,1012.99
2022-09-11T18:15:53.101Z,1012.99
2022-09-11T18:16:53.060Z,1012.97
2022-09-11T18:17:53.050Z,1013.02
2022-09-11T18:18:53.024Z,1012.98
2022-09-11T18:19:53.039Z,1013.01
2022-09-11T18:20:53.009Z,1013.04
2022-09-11T18:21:52.999Z,1013.04
2022-09-11T18:22:52.988Z,1013.09
2022-09-11T18:23:52.983Z,1013.14
2022-09-11T18:24:53.906Z,1013.06
2022-09-11T18:25:52.962Z,1013.12
2022-09-11T18:26:56.092Z,1013.11
2022-09-11T18:27:53.961Z,1013.18
2022-09-11T18:28:52.925Z,1013.12
2022-09-11T18:29:52.908Z,1013.13
2022-09-11T18:30:52.909Z,1013.21
2022-09-11T18:31:52.957Z,1013.17
2022-09-11T18:32:52.868Z,1013.20
2022-09-11T18:33:52.868Z,1013.21
2022-09-11T18:34:52.865Z,1013.18
2022-09-11T18:35:52.838Z,1013.16
2022-09-11T18:36:52.837Z,1013.16
2022-09-11T18:37:52.815Z,1013.23
2022-09-11T18:38:52.813Z,1013.23
2022-09-11T18:39:52.841Z,1013.18
2022-09-11T18:40:52.793Z,1013.16
2022-09-11T18:41:52.819Z,1013.16
2022-09-11T18:42:52.902Z,1013.19
2022-09-11T18:43:52.757Z,1013.16
2022-09-11T18:44:52.747Z,1013.17
2022-09-11T18:45:52.740Z,1013.24
2022-09-11T18:46:52.784Z,1013.23
2022-09-11T18:47:52.735Z,1013.14
2022-09-11T18:48:52.729Z,1013.22
2022-09-11T18:49:52.684Z,1013.25
2022-09-11T18:50:52.683Z,1013.29
2022-09-11T18:51:52.667Z,1013.29
2022-09-11T18:52:52.661Z,1013.29
2022-09-11T18:53:52.660Z,1013.24
2022-09-11T18:54:52.642Z,1013.32
2022-09-11T18:55:52.621Z,1013.34
2022-09-11T18:56:52.617Z,1013.33
2022-09-11T18:57:52.634Z,1013.32
2022-09-11T18:58:52.613Z,1013.38
2022-09-11T18:59:52.584Z,1013.29
2022-09-11T19:00:52.672Z,1013.36
2022-09-11T19:01:52.669Z,1013.33
2022-09-11T19:02:52.545Z,1013.34
2022-09-11T19:03:52.554Z,1013.36
2022-09-11T19:04:52.544Z,1013.39
2022-09-11T19:05:52.522Z,1013.41
2022-09-11T19:06:52.514Z,1013.33
2022-09-11T19:07:52.491Z,1013.40
2022-09-11T19:08:52.481Z,1013.39
2022-09-11T19:09:52.468Z,1013.43
2022-09-11T19:10:52.955Z,1013.45
2022-09-11T19:11:52.458Z,1013.36
2022-09-11T19:12:52.442Z,1013.42
2022-09-11T19:13:52.436Z,1013.44
2022-09-11T19:14:52.449Z,1013.46
2022-09-11T19:15:52.422Z,1013.50
2022-09-11T19:16:52.391Z,1013.56
2022-09-11T19:17:52.382Z,1013.48
2022-09-11T19:18:52.372Z,1013.56
2022-09-11T19:19:52.505Z,1013.63
2022-09-11T19:20:52.354Z,1013.58
2022-09-11T19:21:52.350Z,1013.65
2022-09-11T19:22:52.342Z,1013.62
2022-09-11T19:23:52.322Z,1013.68
2022-09-11T19:24:52.332Z,1013.68
2022-09-11T19:25:52.294Z,1013.66
2022-09-11T19:26:52.284Z,1013.59
2022-09-11T19:27:52.275Z,1013.64
2022-09-11T19:28:52.265Z,1013.60
2022-09-11T19:29:52.259Z,1013.72
2022-09-11T19:30:52.281Z,1013.57
2022-09-11T19:31:52.236Z,1013.60
2022-09-11T19:32:52.219Z,1013.66
2022-09-11T19:33:52.208Z,1013.67
2022-09-11T19:34:52.203Z,1013.64
2022-09-11T19:35:52.199Z,1013.66
2022-09-11T19:36:52.188Z,1013.73
2022-09-11T19:37:52.174Z,1013.69
2022-09-11T19:38:52.175Z,1013.66
2022-09-11T19:39:52.206Z,1013.67
2022-09-11T19:40:52.138Z,1013.70
2022-09-11T19:41:52.135Z,1013.72
2022-09-11T19:42:52.127Z,1013.73
2022-09-11T19:43:52.112Z,1013.75
2022-09-11T19:44:56.185Z,1013.73
2022-09-11T19:45:52.086Z,1013.72
2022-09-11T19:46:52.127Z,1013.70